createdAt,value
2023-02-28T00:00:10.325Z,82.43
2023-02-28T00:01:10.268Z,82.43
2023-02-28T00:02:10.366Z,82.54
2023-02-28T00:03:10.295Z,82.68
2023-02-28T00:04:10.541Z,82.79
2023-02-28T00:05:10.232Z,82.89
2023-02-28T00:06:10.243Z,83.00
2023-02-28T00:07:10.196Z,83.10
2023-02-28T00:08:10.214Z,83.21
2023-02-28T00:09:10.205Z,83.31
2023-02-28T00:10:10.228Z,83.42
2023-02-28T00:11:10.163Z,83.42
2023-02-28T00:12:10.180Z,83.52
2023-02-28T00:13:10.149Z,83.62
2023-02-28T00:14:10.151Z,83.62
2023-02-28T00:15:10.128Z,83.73
2023-02-28T00:16:10.271Z,83.83
2023-02-28T00:17:10.121Z,83.83
2023-02-28T00:18:10.090Z,83.87
2023-02-28T00:19:10.093Z,83.98
2023-02-28T00:20:10.074Z,83.98
2023-02-28T00:21:10.059Z,84.08
2023-02-28T00:22:10.091Z,84.19
2023-02-28T00:23:10.050Z,84.25
2023-02-28T00:24:10.033Z,84.36
2023-02-28T00:25:10.015Z,84.36
2023-02-28T00:26:10.022Z,84.36
2023-02-28T00:27:09.985Z,84.36
2023-02-28T00:28:10.016Z,84.39
2023-02-28T00:29:09.977Z,84.39
2023-02-28T00:30:09.974Z,84.39
2023-02-28T00:31:10.026Z,84.39
2023-02-28T00:32:10.007Z,84.39
2023-02-28T00:33:09.951Z,84.50
2023-02-28T00:34:09.920Z,84.50
2023-02-28T00:35:09.910Z,84.61
2023-02-28T00:36:09.921Z,84.81
2023-02-28T00:37:09.885Z,84.92
2023-02-28T00:38:09.913Z,85.02
2023-02-28T00:39:09.862Z,85.13
2023-02-28T00:40:09.853Z,85.02
2023-02-28T00:41:10.866Z,85.02
2023-02-28T00:42:09.814Z,85.02
2023-02-28T00:43:09.815Z,85.02
2023-02-28T00:44:09.841Z,85.02
2023-02-28T00:45:09.810Z,85.02
2023-02-28T00:46:10.805Z,85.02
2023-02-28T00:47:09.779Z,85.02
2023-02-28T00:48:09.764Z,84.92
2023-02-28T00:49:09.772Z,84.92
2023-02-28T00:50:09.803Z,84.81
2023-02-28T00:51:09.722Z,84.81
2023-02-28T00:52:09.721Z,84.81
2023-02-28T00:53:09.710Z,84.92
2023-02-28T00:54:09.689Z,84.92
2023-02-28T00:55:09.685Z,84.92
2023-02-28T00:56:10.655Z,85.02
2023-02-28T00:57:09.678Z,85.13
2023-02-28T00:58:09.649Z,85.24
2023-02-28T00:59:09.635Z,85.34
2023-02-28T01:00:09.706Z,85.34
2023-02-28T01:01:09.882Z,85.44
2023-02-28T01:02:09.619Z,85.44
2023-02-28T01:03:09.614Z,85.44
2023-02-28T01:04:09.639Z,85.44
2023-02-28T01:05:09.585Z,85.44
2023-02-28T01:06:09.558Z,85.44
2023-02-28T01:07:09.619Z,85.44
2023-02-28T01:08:09.539Z,85.48
2023-02-28T01:09:09.539Z,85.38
2023-02-28T01:10:09.521Z,85.38
2023-02-28T01:11:09.538Z,85.27
2023-02-28T01:12:09.494Z,85.27
2023-02-28T01:13:09.507Z,85.27
2023-02-28T01:14:09.487Z,85.27
2023-02-28T01:15:09.460Z,85.27
2023-02-28T01:16:09.513Z,85.27
2023-02-28T01:17:09.447Z,85.27
2023-02-28T01:18:09.485Z,85.27
2023-02-28T01:19:09.418Z,85.38
2023-02-28T01:20:09.476Z,85.38
2023-02-28T01:21:09.405Z,85.38
2023-02-28T01:22:09.378Z,85.38
2023-02-28T01:23:09.374Z,85.38
2023-02-28T01:24:09.396Z,85.48
2023-02-28T01:25:09.393Z,85.48
2023-02-28T01:26:09.341Z,85.38
2023-02-28T01:27:09.340Z,85.48
2023-02-28T01:28:09.372Z,85.59
2023-02-28T01:29:09.319Z,85.59
2023-02-28T01:30:09.301Z,85.59
2023-02-28T01:31:09.383Z,85.48
2023-02-28T01:32:10.151Z,85.48
2023-02-28T01:33:09.333Z,85.48
2023-02-28T01:34:09.252Z,85.48
2023-02-28T01:35:09.250Z,85.48
2023-02-28T01:36:09.326Z,85.38
2023-02-28T01:37:09.228Z,85.38
2023-02-28T01:38:21.295Z,85.38
2023-02-28T01:39:10.244Z,85.38
2023-02-28T01:40:09.192Z,85.42
2023-02-28T01:41:09.223Z,85.42
2023-02-28T01:42:09.180Z,85.42
2023-02-28T01:43:09.183Z,85.52
2023-02-28T01:44:09.153Z,85.52
2023-02-28T01:45:09.201Z,85.52
2023-02-28T01:46:09.131Z,85.63
2023-02-28T01:47:09.161Z,85.63
2023-02-28T01:48:09.138Z,85.73
2023-02-28T01:49:09.102Z,85.73
2023-02-28T01:50:10.038Z,85.73
2023-02-28T01:51:09.107Z,85.73
2023-02-28T01:52:09.075Z,85.73
2023-02-28T01:53:09.088Z,85.73
2023-02-28T01:54:09.058Z,85.73
2023-02-28T01:55:09.019Z,85.63
2023-02-28T01:56:09.018Z,85.63
2023-02-28T01:57:09.032Z,85.63
2023-02-28T01:58:08.990Z,85.73
2023-02-28T01:59:08.987Z,85.73
2023-02-28T02:00:09.005Z,85.73
2023-02-28T02:01:08.992Z,85.88
2023-02-28T02:02:09.104Z,85.83
2023-02-28T02:03:09.087Z,85.94
2023-02-28T02:04:08.932Z,86.05
2023-02-28T02:05:08.936Z,86.15
2023-02-28T02:06:08.919Z,86.25
2023-02-28T02:07:08.898Z,86.25
2023-02-28T02:08:08.907Z,86.36
2023-02-28T02:09:08.931Z,86.46
2023-02-28T02:10:08.880Z,86.46
2023-02-28T02:11:08.861Z,86.46
2023-02-28T02:12:08.847Z,86.46
2023-02-28T02:13:09.855Z,86.46
2023-02-28T02:14:08.830Z,86.46
2023-02-28T02:15:08.893Z,86.36
2023-02-28T02:16:08.903Z,86.36
2023-02-28T02:17:08.800Z,86.25
2023-02-28T02:18:08.793Z,86.25
2023-02-28T02:19:08.766Z,86.25
2023-02-28T02:20:08.777Z,86.15
2023-02-28T02:21:08.766Z,86.15
2023-02-28T02:22:08.770Z,86.15
2023-02-28T02:23:08.740Z,86.05
2023-02-28T02:24:08.727Z,86.05
2023-02-28T02:25:08.701Z,86.05
2023-02-28T02:26:08.722Z,86.15
2023-02-28T02:27:08.714Z,86.15
2023-02-28T02:28:08.661Z,86.25
2023-02-28T02:29:08.667Z,86.36
2023-02-28T02:30:09.618Z,86.36
2023-02-28T02:31:08.709Z,86.36
2023-02-28T02:32:08.797Z,86.36
2023-02-28T02:33:08.796Z,86.36
2023-02-28T02:34:08.601Z,86.46
2023-02-28T02:35:08.592Z,86.46
2023-02-28T02:36:08.595Z,86.46
2023-02-28T02:37:08.978Z,86.46
2023-02-28T02:38:08.625Z,86.36
2023-02-28T02:39:08.601Z,86.36
2023-02-28T02:40:08.544Z,86.25
2023-02-28T02:41:08.554Z,86.15
2023-02-28T02:42:08.514Z,86.19
2023-02-28T02:43:08.567Z,86.19
2023-02-28T02:44:08.520Z,86.08
2023-02-28T02:45:08.622Z,86.08
2023-02-28T02:46:09.419Z,86.08
2023-02-28T02:47:08.468Z,86.08
2023-02-28T02:48:08.928Z,86.08
2023-02-28T02:49:08.479Z,86.12
2023-02-28T02:50:08.456Z,86.12
2023-02-28T02:51:08.408Z,86.12
2023-02-28T02:52:08.396Z,86.23
2023-02-28T02:53:08.476Z,86.33
2023-02-28T02:54:09.383Z,86.33
2023-02-28T02:55:09.206Z,86.44
2023-02-28T02:56:08.386Z,86.54
2023-02-28T02:57:08.637Z,86.58
2023-02-28T02:58:08.363Z,86.69
2023-02-28T02:59:09.079Z,86.69
2023-02-28T03:00:08.318Z,86.69
2023-02-28T03:01:08.377Z,86.79
2023-02-28T03:02:08.297Z,86.79
2023-02-28T03:03:08.291Z,86.90
2023-02-28T03:04:08.329Z,87.00
2023-02-28T03:05:08.293Z,87.04
2023-02-28T03:06:09.716Z,87.15
2023-02-28T03:07:08.278Z,87.25
2023-02-28T03:08:08.299Z,87.25
2023-02-28T03:09:08.233Z,87.36
2023-02-28T03:10:08.236Z,87.36
2023-02-28T03:11:08.225Z,87.46
2023-02-28T03:12:08.183Z,87.57
2023-02-28T03:13:08.208Z,87.67
2023-02-28T03:14:08.227Z,87.67
2023-02-28T03:15:08.251Z,87.77
2023-02-28T03:16:08.170Z,87.88
2023-02-28T03:17:08.302Z,87.88
2023-02-28T03:18:08.122Z,87.99
2023-02-28T03:19:08.152Z,87.99
2023-02-28T03:20:09.139Z,87.99
2023-02-28T03:21:08.120Z,87.99
2023-02-28T03:22:08.097Z,88.09
2023-02-28T03:23:08.099Z,88.09
2023-02-28T03:24:08.077Z,88.09
2023-02-28T03:25:08.163Z,88.09
2023-02-28T03:26:08.089Z,88.20
2023-02-28T03:27:08.047Z,88.20
2023-02-28T03:28:08.042Z,88.20
2023-02-28T03:29:08.039Z,88.30
2023-02-28T03:30:08.005Z,88.30
2023-02-28T03:31:08.245Z,88.30
2023-02-28T03:32:08.133Z,88.30
2023-02-28T03:33:08.179Z,88.30
2023-02-28T03:34:07.954Z,88.30
2023-02-28T03:35:07.960Z,88.30
2023-02-28T03:36:07.929Z,88.30
2023-02-28T03:37:08.039Z,88.30
2023-02-28T03:38:07.919Z,88.45
2023-02-28T03:39:07.910Z,88.45
2023-02-28T03:40:07.888Z,88.45
2023-02-28T03:41:07.892Z,88.45
2023-02-28T03:42:07.865Z,88.55
2023-02-28T03:43:08.837Z,88.66
2023-02-28T03:44:07.860Z,88.66
2023-02-28T03:45:08.805Z,88.72
2023-02-28T03:46:07.853Z,88.72
2023-02-28T03:47:08.812Z,88.72
2023-02-28T03:48:09.270Z,88.76
2023-02-28T03:49:09.782Z,88.76
2023-02-28T03:50:07.806Z,88.76
2023-02-28T03:51:07.802Z,88.87
2023-02-28T03:52:07.782Z,88.72
2023-02-28T03:53:07.936Z,88.72
2023-02-28T03:54:07.789Z,88.72
2023-02-28T03:55:09.178Z,88.62
2023-02-28T03:56:09.167Z,88.62
2023-02-28T03:57:07.706Z,88.66
2023-02-28T03:58:07.689Z,88.66
2023-02-28T03:59:07.753Z,88.66
2023-02-28T04:00:07.686Z,88.66
2023-02-28T04:01:09.723Z,88.66
2023-02-28T04:02:07.746Z,88.66
2023-02-28T04:03:07.664Z,88.66
2023-02-28T04:04:07.655Z,88.66
2023-02-28T04:05:08.578Z,88.76
2023-02-28T04:06:07.648Z,88.72
2023-02-28T04:07:07.620Z,88.72
2023-02-28T04:08:07.621Z,88.82
2023-02-28T04:09:07.722Z,88.72
2023-02-28T04:10:07.795Z,88.72
2023-02-28T04:11:07.570Z,88.72
2023-02-28T04:12:07.540Z,88.72
2023-02-28T04:13:07.558Z,88.62
2023-02-28T04:14:07.516Z,88.62
2023-02-28T04:15:08.449Z,88.62
2023-02-28T04:16:07.577Z,88.51
2023-02-28T04:17:08.988Z,88.41
2023-02-28T04:18:07.502Z,88.30
2023-02-28T04:19:07.538Z,88.20
2023-02-28T04:20:08.253Z,88.09
2023-02-28T04:21:07.505Z,87.99
2023-02-28T04:22:07.422Z,87.88
2023-02-28T04:23:07.457Z,87.88
2023-02-28T04:24:07.428Z,87.77
2023-02-28T04:25:08.360Z,87.77
2023-02-28T04:26:07.388Z,87.67
2023-02-28T04:27:07.534Z,87.67
2023-02-28T04:28:07.384Z,87.71
2023-02-28T04:29:07.351Z,87.67
2023-02-28T04:30:07.367Z,87.77
2023-02-28T04:31:07.360Z,87.77
2023-02-28T04:32:07.437Z,87.67
2023-02-28T04:33:07.327Z,87.67
2023-02-28T04:34:08.770Z,87.71
2023-02-28T04:35:08.277Z,87.71
2023-02-28T04:36:07.267Z,87.60
2023-02-28T04:37:14.636Z,87.60
2023-02-28T04:38:08.930Z,87.60
2023-02-28T04:39:07.263Z,87.60
2023-02-28T04:40:07.267Z,87.60
2023-02-28T04:41:07.502Z,87.60
2023-02-28T04:42:07.587Z,87.60
2023-02-28T04:43:07.212Z,87.71
2023-02-28T04:44:07.186Z,87.82
2023-02-28T04:45:07.204Z,87.82
2023-02-28T04:46:07.269Z,87.82
2023-02-28T04:47:08.222Z,87.82
2023-02-28T04:48:07.139Z,87.71
2023-02-28T04:49:07.224Z,87.71
2023-02-28T04:50:07.127Z,87.60
2023-02-28T04:51:07.174Z,87.60
2023-02-28T04:52:07.093Z,87.60
2023-02-28T04:53:08.594Z,87.65
2023-02-28T04:54:07.073Z,87.65
2023-02-28T04:55:07.063Z,87.75
2023-02-28T04:56:07.082Z,87.75
2023-02-28T04:57:07.182Z,87.85
2023-02-28T04:58:09.175Z,87.85
2023-02-28T04:59:07.057Z,87.96
2023-02-28T05:00:07.221Z,87.96
2023-02-28T05:01:07.027Z,87.96
2023-02-28T05:02:07.020Z,87.96
2023-02-28T05:03:06.986Z,87.96
2023-02-28T05:04:06.974Z,87.96
2023-02-28T05:05:06.989Z,87.96
2023-02-28T05:06:07.001Z,87.96
2023-02-28T05:07:06.982Z,87.96
2023-02-28T05:08:06.933Z,87.85
2023-02-28T05:09:06.944Z,87.85
2023-02-28T05:10:06.893Z,87.75
2023-02-28T05:11:06.903Z,87.75
2023-02-28T05:12:06.881Z,87.75
2023-02-28T05:13:06.882Z,87.75
2023-02-28T05:14:06.859Z,87.85
2023-02-28T05:15:06.875Z,87.75
2023-02-28T05:16:08.337Z,87.75
2023-02-28T05:17:06.828Z,87.85
2023-02-28T05:18:06.877Z,87.75
2023-02-28T05:19:06.916Z,87.75
2023-02-28T05:20:15.337Z,87.75
2023-02-28T05:21:07.840Z,87.75
2023-02-28T05:22:06.771Z,87.75
2023-02-28T05:23:06.815Z,87.75
2023-02-28T05:24:08.283Z,87.75
2023-02-28T05:25:06.748Z,87.75
2023-02-28T05:26:06.797Z,87.75
2023-02-28T05:27:06.731Z,87.75
2023-02-28T05:28:06.777Z,87.75
2023-02-28T05:29:07.779Z,87.75
2023-02-28T05:30:06.714Z,87.75
2023-02-28T05:31:06.722Z,87.75
2023-02-28T05:32:06.836Z,87.75
2023-02-28T05:33:06.662Z,87.65
2023-02-28T05:34:06.768Z,87.65
2023-02-28T05:35:06.638Z,87.65
2023-02-28T05:36:06.644Z,87.65
2023-02-28T05:37:06.619Z,87.65
2023-02-28T05:38:06.606Z,87.65
2023-02-28T05:39:06.585Z,87.65
2023-02-28T05:40:07.453Z,87.65
2023-02-28T05:41:07.409Z,87.54
2023-02-28T05:42:06.555Z,87.54
2023-02-28T05:43:08.058Z,87.54
2023-02-28T05:44:06.688Z,87.54
2023-02-28T05:45:06.564Z,87.54
2023-02-28T05:46:06.603Z,87.40
2023-02-28T05:47:06.617Z,87.44
2023-02-28T05:48:06.520Z,87.29
2023-02-28T05:49:06.615Z,87.23
2023-02-28T05:50:06.499Z,87.23
2023-02-28T05:51:06.554Z,87.12
2023-02-28T05:52:06.483Z,87.12
2023-02-28T05:53:06.453Z,87.02
2023-02-28T05:54:06.438Z,87.02
2023-02-28T05:55:06.468Z,87.02
2023-02-28T05:56:06.451Z,87.02
2023-02-28T05:57:15.544Z,87.02
2023-02-28T05:58:07.505Z,87.02
2023-02-28T05:59:06.401Z,87.02
2023-02-28T06:00:06.410Z,87.02
2023-02-28T06:01:06.392Z,87.05
2023-02-28T06:02:06.373Z,87.05
2023-02-28T06:03:06.428Z,87.16
2023-02-28T06:04:06.326Z,87.16
2023-02-28T06:05:06.303Z,87.27
2023-02-28T06:06:06.312Z,87.37
2023-02-28T06:07:06.372Z,87.37
2023-02-28T06:08:06.265Z,87.37
2023-02-28T06:09:07.219Z,87.44
2023-02-28T06:10:06.253Z,87.44
2023-02-28T06:11:06.261Z,87.33
2023-02-28T06:12:06.241Z,87.33
2023-02-28T06:13:06.274Z,87.33
2023-02-28T06:14:06.257Z,87.23
2023-02-28T06:15:06.263Z,87.23
2023-02-28T06:16:06.195Z,87.27
2023-02-28T06:17:06.178Z,87.27
2023-02-28T06:18:06.176Z,87.16
2023-02-28T06:19:06.225Z,87.27
2023-02-28T06:20:06.215Z,87.27
2023-02-28T06:21:06.172Z,87.16
2023-02-28T06:22:06.136Z,87.16
2023-02-28T06:23:06.180Z,87.16
2023-02-28T06:24:06.129Z,87.16
2023-02-28T06:25:06.078Z,87.27
2023-02-28T06:26:06.915Z,87.27
2023-02-28T06:27:06.488Z,87.27
2023-02-28T06:28:06.079Z,87.27
2023-02-28T06:29:06.557Z,87.33
2023-02-28T06:30:06.057Z,87.33
2023-02-28T06:31:06.118Z,87.33
2023-02-28T06:32:06.025Z,87.33
2023-02-28T06:33:05.998Z,87.33
2023-02-28T06:34:05.994Z,87.33
2023-02-28T06:35:06.038Z,87.23
2023-02-28T06:36:06.041Z,87.12
2023-02-28T06:37:05.966Z,87.12
2023-02-28T06:38:05.948Z,87.12
2023-02-28T06:39:05.968Z,87.12
2023-02-28T06:40:05.939Z,87.12
2023-02-28T06:41:05.896Z,87.12
2023-02-28T06:42:05.915Z,87.12
2023-02-28T06:43:05.920Z,87.12
2023-02-28T06:44:05.935Z,87.12
2023-02-28T06:45:05.887Z,87.12
2023-02-28T06:46:05.869Z,87.12
2023-02-28T06:47:05.859Z,87.33
2023-02-28T06:48:05.825Z,87.60
2023-02-28T06:49:07.192Z,88.02
2023-02-28T06:50:06.320Z,88.24
2023-02-28T06:51:05.805Z,88.30
2023-02-28T06:52:05.793Z,88.34
2023-02-28T06:53:05.781Z,88.30
2023-02-28T06:54:05.773Z,88.20
2023-02-28T06:55:05.782Z,88.13
2023-02-28T06:56:05.858Z,88.02
2023-02-28T06:57:06.149Z,87.77
2023-02-28T06:58:06.684Z,87.67
2023-02-28T06:59:05.730Z,87.57
2023-02-28T07:00:05.712Z,87.46
2023-02-28T07:01:05.702Z,87.36
2023-02-28T07:02:06.499Z,87.25
2023-02-28T07:03:05.660Z,87.04
2023-02-28T07:05:32.974Z,86.79
2023-02-28T07:06:36.909Z,86.90
2023-02-28T07:07:30.841Z,87.28
2023-02-28T07:08:30.730Z,88.01
2023-02-28T07:09:30.739Z,88.71
2023-02-28T07:10:30.726Z,89.29
2023-02-28T07:11:31.688Z,89.82
2023-02-28T07:12:30.913Z,90.30
2023-02-28T07:13:30.675Z,90.58
2023-02-28T07:14:30.916Z,90.58
2023-02-28T07:15:30.791Z,90.36
2023-02-28T07:16:30.731Z,90.16
2023-02-28T07:17:30.633Z,89.73
2023-02-28T07:18:30.722Z,89.32
2023-02-28T07:19:30.618Z,88.69
2023-02-28T07:20:30.759Z,88.17
2023-02-28T07:21:30.867Z,87.54
2023-02-28T07:22:30.712Z,86.95
2023-02-28T07:23:30.549Z,86.43
2023-02-28T07:24:30.510Z,85.80
2023-02-28T07:25:30.647Z,85.27
2023-02-28T07:26:30.621Z,84.85
2023-02-28T07:27:30.610Z,84.44
2023-02-28T07:28:30.502Z,84.33
2023-02-28T07:29:30.974Z,84.61
2023-02-28T07:30:30.681Z,85.02
2023-02-28T07:31:30.865Z,85.72
2023-02-28T07:32:30.479Z,86.31
2023-02-28T07:33:30.607Z,87.00
2023-02-28T07:34:30.474Z,87.52
2023-02-28T07:35:30.671Z,87.80
2023-02-28T07:36:30.519Z,87.80
2023-02-28T07:37:30.649Z,87.27
2023-02-28T07:38:30.485Z,86.54
2023-02-28T07:39:30.711Z,85.71
2023-02-28T07:40:30.515Z,84.77
2023-02-28T07:41:30.846Z,84.03
2023-02-28T07:42:30.419Z,83.20
2023-02-28T07:43:30.376Z,82.36
2023-02-28T07:44:30.323Z,81.73
2023-02-28T07:45:30.596Z,81.21
2023-02-28T07:46:30.942Z,80.69
2023-02-28T07:47:30.465Z,80.27
2023-02-28T07:48:30.454Z,79.85
2023-02-28T07:49:31.333Z,79.64
2023-02-28T07:50:30.315Z,79.33
2023-02-28T07:51:30.657Z,79.12
2023-02-28T07:52:30.314Z,78.91
2023-02-28T07:53:30.352Z,78.70
2023-02-28T07:54:30.276Z,78.49
2023-02-28T07:55:30.224Z,78.49
2023-02-28T07:56:30.473Z,78.70
2023-02-28T07:57:30.374Z,79.02
2023-02-28T07:58:30.310Z,79.29
2023-02-28T07:59:32.247Z,79.19
2023-02-28T08:00:30.334Z,78.77
2023-02-28T08:01:30.456Z,78.25
2023-02-28T08:02:30.250Z,77.62
2023-02-28T08:03:30.243Z,77.20
2023-02-28T08:04:30.148Z,76.89
2023-02-28T08:05:30.883Z,76.68
2023-02-28T08:06:53.388Z,76.47
2023-02-28T08:07:30.564Z,76.33
2023-02-28T08:08:38.244Z,76.23
2023-02-28T08:09:30.503Z,76.33
2023-02-28T08:10:31.872Z,76.02
2023-02-28T08:12:28.389Z,74.98
2023-02-28T08:13:28.377Z,74.56
2023-02-28T08:14:28.430Z,74.24
2023-02-28T08:15:28.342Z,74.04
2023-02-28T08:16:28.361Z,73.83
2023-02-28T08:17:28.382Z,73.62
2023-02-28T08:18:29.341Z,73.72
2023-02-28T08:19:28.304Z,73.72
2023-02-28T08:20:28.310Z,73.58
2023-02-28T08:21:28.639Z,73.38
2023-02-28T08:22:28.278Z,73.27
2023-02-28T08:23:29.750Z,72.96
2023-02-28T08:24:28.281Z,72.64
2023-02-28T08:25:28.438Z,72.33
2023-02-28T08:26:28.255Z,71.88
2023-02-28T08:27:28.213Z,71.47
2023-02-28T08:28:28.209Z,71.15
2023-02-28T08:29:28.186Z,70.84
2023-02-28T08:30:28.188Z,70.73
2023-02-28T08:31:28.609Z,70.53
2023-02-28T08:32:30.238Z,70.28
2023-02-28T08:33:28.142Z,70.07
2023-02-28T08:34:28.142Z,69.66
2023-02-28T08:35:28.141Z,69.45
2023-02-28T08:36:28.232Z,69.24
2023-02-28T08:37:28.089Z,68.93
2023-02-28T08:38:28.092Z,68.59
2023-02-28T08:39:28.075Z,68.38
2023-02-28T08:40:28.074Z,68.27
2023-02-28T08:41:28.507Z,67.96
2023-02-28T08:42:28.081Z,67.54
2023-02-28T08:43:28.050Z,67.20
2023-02-28T08:44:28.022Z,66.99
2023-02-28T08:45:28.081Z,66.57
2023-02-28T08:46:28.030Z,66.36
2023-02-28T08:47:28.013Z,66.16
2023-02-28T08:48:28.927Z,66.05
2023-02-28T08:49:27.969Z,65.84
2023-02-28T08:50:27.989Z,65.40
2023-02-28T08:51:28.503Z,65.09
2023-02-28T08:52:28.239Z,64.67
2023-02-28T08:53:27.924Z,64.25
2023-02-28T08:54:27.929Z,64.15
2023-02-28T08:55:28.342Z,64.15
2023-02-28T08:56:27.910Z,64.25
2023-02-28T08:57:28.269Z,64.25
2023-02-28T08:58:27.862Z,64.15
2023-02-28T08:59:27.891Z,64.25
2023-02-28T09:00:29.296Z,65.58
2023-02-28T09:01:28.146Z,65.26
2023-02-28T09:02:27.817Z,64.95
2023-02-28T09:03:27.822Z,64.75
2023-02-28T09:04:27.841Z,64.53
2023-02-28T09:05:27.788Z,64.12
2023-02-28T09:06:28.315Z,63.60
2023-02-28T09:07:27.778Z,63.39
2023-02-28T09:08:27.791Z,63.29
2023-02-28T09:09:28.762Z,63.08
2023-02-28T09:10:27.752Z,62.87
2023-02-28T09:11:27.756Z,62.63
2023-02-28T09:12:27.718Z,62.43
2023-02-28T09:13:27.763Z,62.32
2023-02-28T09:14:27.693Z,62.11
2023-02-28T09:15:27.678Z,62.11
2023-02-28T09:16:27.743Z,62.01
2023-02-28T09:17:30.792Z,61.90
2023-02-28T09:18:27.653Z,61.80
2023-02-28T09:19:27.648Z,61.80
2023-02-28T09:20:27.643Z,61.59
2023-02-28T09:21:27.817Z,61.59
2023-02-28T09:22:27.600Z,61.49
2023-02-28T09:23:27.601Z,61.49
2023-02-28T09:24:27.602Z,61.67
2023-02-28T09:25:27.734Z,61.57
2023-02-28T09:26:32.396Z,61.46
2023-02-28T09:27:28.558Z,61.15
2023-02-28T09:28:27.566Z,60.73
2023-02-28T09:29:27.556Z,60.31
2023-02-28T09:30:27.586Z,60.00
2023-02-28T09:31:27.515Z,60.00
2023-02-28T09:32:27.573Z,59.69
2023-02-28T09:33:28.931Z,59.69
2023-02-28T09:34:27.584Z,59.77
2023-02-28T09:35:27.459Z,59.88
2023-02-28T09:36:41.581Z,59.25
2023-02-28T09:37:28.480Z,58.83
2023-02-28T09:38:28.275Z,58.52
2023-02-28T09:39:27.412Z,58.52
2023-02-28T09:40:27.412Z,58.62
2023-02-28T09:41:27.558Z,58.70
2023-02-28T09:42:27.434Z,58.50
2023-02-28T09:43:28.219Z,58.18
2023-02-28T09:44:27.411Z,58.39
2023-02-28T09:45:27.839Z,58.39
2023-02-28T09:46:27.412Z,58.29
2023-02-28T09:47:27.328Z,58.18
2023-02-28T09:48:27.336Z,58.15
2023-02-28T09:49:27.396Z,57.95
2023-02-28T09:50:27.288Z,57.95
2023-02-28T09:51:27.590Z,57.53
2023-02-28T09:52:27.509Z,57.12
2023-02-28T09:53:27.271Z,56.81
2023-02-28T09:54:27.272Z,56.81
2023-02-28T09:55:27.546Z,56.68
2023-02-28T09:56:27.890Z,56.47
2023-02-28T09:57:27.441Z,56.26
2023-02-28T09:58:27.217Z,56.47
2023-02-28T09:59:27.208Z,56.47
2023-02-28T10:00:28.677Z,56.37
2023-02-28T10:01:27.649Z,56.57
2023-02-28T10:02:27.170Z,56.57
2023-02-28T10:03:27.159Z,56.57
2023-02-28T10:04:27.233Z,56.47
2023-02-28T10:05:28.176Z,56.57
2023-02-28T10:06:27.162Z,56.78
2023-02-28T10:07:27.125Z,56.78
2023-02-28T10:08:27.112Z,56.65
2023-02-28T10:09:27.474Z,56.24
2023-02-28T10:10:27.869Z,56.13
2023-02-28T10:11:27.070Z,56.13
2023-02-28T10:12:27.082Z,56.03
2023-02-28T10:13:27.062Z,56.24
2023-02-28T10:14:27.040Z,56.45
2023-02-28T10:15:27.029Z,56.34
2023-02-28T10:16:27.609Z,56.13
2023-02-28T10:17:27.849Z,55.93
2023-02-28T10:18:26.984Z,55.90
2023-02-28T10:19:27.224Z,55.69
2023-02-28T10:20:26.966Z,55.58
2023-02-28T10:21:26.955Z,55.38
2023-02-28T10:22:26.944Z,55.07
2023-02-28T10:23:27.219Z,55.07
2023-02-28T10:24:26.938Z,54.86
2023-02-28T10:25:26.956Z,54.96
2023-02-28T10:26:28.741Z,54.96
2023-02-28T10:27:26.892Z,54.86
2023-02-28T10:28:26.880Z,54.52
2023-02-28T10:29:26.885Z,54.42
2023-02-28T10:30:26.861Z,54.32
2023-02-28T10:31:26.907Z,54.11
2023-02-28T10:32:26.857Z,54.19
2023-02-28T10:33:26.969Z,54.08
2023-02-28T10:34:26.811Z,53.56
2023-02-28T10:35:26.810Z,53.46
2023-02-28T10:36:26.783Z,53.33
2023-02-28T10:37:26.802Z,53.33
2023-02-28T10:38:26.795Z,53.23
2023-02-28T10:39:26.908Z,53.41
2023-02-28T10:40:26.747Z,53.72
2023-02-28T10:41:26.754Z,53.70
2023-02-28T10:42:26.712Z,53.59
2023-02-28T10:43:27.536Z,53.28
2023-02-28T10:44:28.141Z,52.44
2023-02-28T10:45:26.702Z,51.92
2023-02-28T10:46:27.077Z,51.71
2023-02-28T10:47:26.846Z,51.48
2023-02-28T10:48:27.456Z,51.07
2023-02-28T10:49:26.679Z,51.07
2023-02-28T10:50:26.641Z,51.07
2023-02-28T10:51:29.311Z,50.76
2023-02-28T10:52:26.593Z,50.37
2023-02-28T10:53:26.772Z,50.57
2023-02-28T10:54:26.591Z,50.68
2023-02-28T10:55:26.578Z,50.68
2023-02-28T10:56:27.585Z,50.78
2023-02-28T10:57:31.748Z,51.19
2023-02-28T10:58:26.539Z,51.61
2023-02-28T10:59:26.535Z,51.50
2023-02-28T11:00:26.663Z,51.32
2023-02-28T11:01:26.746Z,51.11
2023-02-28T11:02:26.916Z,50.49
2023-02-28T11:03:26.525Z,50.49
2023-02-28T11:04:26.644Z,50.80
2023-02-28T11:05:27.147Z,50.49
2023-02-28T11:06:26.437Z,50.49
2023-02-28T11:07:27.809Z,49.87
2023-02-28T11:08:26.882Z,49.95
2023-02-28T11:09:26.552Z,50.05
2023-02-28T11:10:26.453Z,49.95
2023-02-28T11:11:27.953Z,49.95
2023-02-28T11:12:26.540Z,50.05
2023-02-28T11:13:26.419Z,50.37
2023-02-28T11:14:27.632Z,50.26
2023-02-28T11:15:26.340Z,49.74
2023-02-28T11:16:26.381Z,50.05
2023-02-28T11:17:27.146Z,50.24
2023-02-28T11:18:26.660Z,50.13
2023-02-28T11:19:26.322Z,49.93
2023-02-28T11:20:26.303Z,50.03
2023-02-28T11:21:26.347Z,50.03
2023-02-28T11:22:26.421Z,50.03
2023-02-28T11:23:26.251Z,49.52
2023-02-28T11:24:26.239Z,49.00
2023-02-28T11:25:26.325Z,48.90
2023-02-28T11:26:26.256Z,49.10
2023-02-28T11:27:26.211Z,49.21
2023-02-28T11:28:26.194Z,49.10
2023-02-28T11:29:26.190Z,49.10
2023-02-28T11:30:26.182Z,49.41
2023-02-28T11:31:26.196Z,49.62
2023-02-28T11:32:26.325Z,49.52
2023-02-28T11:33:26.141Z,49.52
2023-02-28T11:34:26.146Z,49.62
2023-02-28T11:35:26.124Z,49.41
2023-02-28T11:36:26.143Z,49.41
2023-02-28T11:37:26.091Z,49.62
2023-02-28T11:38:26.126Z,49.31
2023-02-28T11:39:26.096Z,49.52
2023-02-28T11:40:26.076Z,49.39
2023-02-28T11:41:26.104Z,49.18
2023-02-28T11:42:27.524Z,48.56
2023-02-28T11:43:26.028Z,47.74
2023-02-28T11:44:27.497Z,47.63
2023-02-28T11:45:26.804Z,47.94
2023-02-28T11:46:26.006Z,48.15
2023-02-28T11:47:27.481Z,48.25
2023-02-28T11:48:25.992Z,47.74
2023-02-28T11:49:25.956Z,47.63
2023-02-28T11:50:25.967Z,47.51
2023-02-28T11:51:25.925Z,47.51
2023-02-28T11:52:27.923Z,47.61
2023-02-28T11:53:27.339Z,47.51
2023-02-28T11:54:26.870Z,47.22
2023-02-28T11:55:25.925Z,46.81
2023-02-28T11:56:25.891Z,46.81
2023-02-28T11:57:26.119Z,46.91
2023-02-28T11:58:25.947Z,47.22
2023-02-28T11:59:25.872Z,47.55
2023-02-28T12:00:25.854Z,47.66
2023-02-28T12:01:25.847Z,47.86
2023-02-28T12:02:25.904Z,48.38
2023-02-28T12:03:25.867Z,48.17
2023-02-28T12:04:25.846Z,48.27
2023-02-28T12:05:25.826Z,51.04
2023-02-28T12:06:25.809Z,49.91
2023-02-28T12:07:25.755Z,48.87
2023-02-28T12:08:25.845Z,48.25
2023-02-28T12:09:25.840Z,47.74
2023-02-28T12:10:26.708Z,47.63
2023-02-28T12:11:25.712Z,47.74
2023-02-28T12:12:25.713Z,47.32
2023-02-28T12:13:25.704Z,47.22
2023-02-28T12:14:25.681Z,47.53
2023-02-28T12:15:25.709Z,47.94
2023-02-28T12:16:25.722Z,47.92
2023-02-28T12:17:25.763Z,48.02
2023-02-28T12:18:25.644Z,48.44
2023-02-28T12:19:25.624Z,48.65
2023-02-28T12:20:25.618Z,48.54
2023-02-28T12:21:25.594Z,48.31
2023-02-28T12:22:25.618Z,47.90
2023-02-28T12:23:25.598Z,48.00
2023-02-28T12:24:26.556Z,47.98
2023-02-28T12:25:25.558Z,47.77
2023-02-28T12:26:25.554Z,47.85
2023-02-28T12:27:26.537Z,47.65
2023-02-28T12:28:25.545Z,47.24
2023-02-28T12:29:25.508Z,47.01
2023-02-28T12:30:25.514Z,47.01
2023-02-28T12:31:25.525Z,46.70
2023-02-28T12:32:25.692Z,46.37
2023-02-28T12:33:25.484Z,46.06
2023-02-28T12:34:25.469Z,45.34
2023-02-28T12:35:25.447Z,45.34
2023-02-28T12:36:26.399Z,45.42
2023-02-28T12:37:25.447Z,45.52
2023-02-28T12:38:26.900Z,45.40
2023-02-28T12:39:25.415Z,45.07
2023-02-28T12:40:25.420Z,44.86
2023-02-28T12:41:25.380Z,44.53
2023-02-28T12:42:25.386Z,44.31
2023-02-28T12:43:26.176Z,43.87
2023-02-28T12:44:25.358Z,43.34
2023-02-28T12:45:26.217Z,43.22
2023-02-28T12:46:25.748Z,42.89
2023-02-28T12:47:25.315Z,42.58
2023-02-28T12:48:26.258Z,42.36
2023-02-28T12:49:25.284Z,41.74
2023-02-28T12:50:25.312Z,41.52
2023-02-28T12:51:25.253Z,41.21
2023-02-28T12:52:25.263Z,41.41
2023-02-28T12:53:25.235Z,41.21
2023-02-28T12:54:25.232Z,40.72